sensor_id;sensor_type;location;lat;lon;timestamp;pressure;altitude;pressure_sealevel;temperature;humidity
82743;BME280;72483;50.656;7.216;2024-03-07T00:00:45;101814.75;;;18.54;47.55
82743;BME280;72483;50.656;7.216;2024-03-07T00:03:12;101818.09;;;18.56;47.56
82743;BME280;72483;50.656;7.216;2024-03-07T00:05:39;101809.72;;;18.56;47.36
82743;BME280;72483;50.656;7.216;2024-03-07T00:08:06;101811.72;;;18.56;47.74
82743;BME280;72483;50.656;7.216;2024-03-07T00:10:32;101809.16;;;18.54;47.38
82743;BME280;72483;50.656;7.216;2024-03-07T00:13:01;101819.47;;;18.54;47.67
82743;BME280;72483;50.656;7.216;2024-03-07T00:15:29;101816.13;;;18.52;47.78
82743;BME280;72483;50.656;7.216;2024-03-07T00:17:56;101818.63;;;18.53;47.54
82743;BME280;72483;50.656;7.216;2024-03-07T00:20:22;101819.47;;;18.54;47.29
82743;BME280;72483;50.656;7.216;2024-03-07T00:22:49;101822.28;;;18.54;47.68
82743;BME280;72483;50.656;7.216;2024-03-07T00:25:15;101820.31;;;18.54;47.41
82743;BME280;72483;50.656;7.216;2024-03-07T00:27:44;101819.75;;;18.52;47.28
82743;BME280;72483;50.656;7.216;2024-03-07T00:30:11;101818.06;;;18.51;47.22
82743;BME280;72483;50.656;7.216;2024-03-07T00:32:40;101823.41;;;18.53;47.61
82743;BME280;72483;50.656;7.216;2024-03-07T00:35:07;101817.81;;;18.53;47.65
82743;BME280;72483;50.656;7.216;2024-03-07T00:37:35;101814.19;;;18.52;47.65
82743;BME280;72483;50.656;7.216;2024-03-07T00:40:02;101815.28;;;18.51;47.18
82743;BME280;72483;50.656;7.216;2024-03-07T00:42:29;101815.28;;;18.51;47.25
82743;BME280;72483;50.656;7.216;2024-03-07T00:44:55;101816.13;;;18.52;47.17
82743;BME280;72483;50.656;7.216;2024-03-07T00:47:22;101811.63;;;18.51;47.32
82743;BME280;72483;50.656;7.216;2024-03-07T00:49:51;101819.16;;;18.50;47.37
82743;BME280;72483;50.656;7.216;2024-03-07T00:52:17;101811.63;;;18.51;47.06
82743;BME280;72483;50.656;7.216;2024-03-07T00:54:44;101809.97;;;18.50;47.51
82743;BME280;72483;50.656;7.216;2024-03-07T00:57:11;101807.19;;;18.50;47.44
82743;BME280;72483;50.656;7.216;2024-03-07T00:59:37;101815.56;;;18.50;47.29
82743;BME280;72483;50.656;7.216;2024-03-07T01:02:04;101812.75;;;18.50;47.01
82743;BME280;72483;50.656;7.216;2024-03-07T01:04:31;101812.75;;;18.50;47.03
82743;BME280;72483;50.656;7.216;2024-03-07T01:07:00;101816.38;;;18.50;47.44
82743;BME280;72483;50.656;7.216;2024-03-07T01:09:26;101808.25;;;18.49;47.07
82743;BME280;72483;50.656;7.216;2024-03-07T01:11:54;101807.19;;;18.50;47.14
82743;BME280;72483;50.656;7.216;2024-03-07T01:14:21;101811.03;;;18.49;47.39
82743;BME280;72483;50.656;7.216;2024-03-07T01:16:48;101795.19;;;18.49;47.46
82743;BME280;72483;50.656;7.216;2024-03-07T01:19:15;101799.88;;;18.49;47.31
82743;BME280;72483;50.656;7.216;2024-03-07T01:21:41;101805.47;;;18.49;47.00
82743;BME280;72483;50.656;7.216;2024-03-07T01:24:09;101800.75;;;18.49;47.28
82743;BME280;72483;50.656;7.216;2024-03-07T01:26:35;101804.63;;;18.48;46.79
82743;BME280;72483;50.656;7.216;2024-03-07T01:29:02;101799.88;;;18.49;46.80
82743;BME280;72483;50.656;7.216;2024-03-07T01:31:29;101799.88;;;18.49;46.79
82743;BME280;72483;50.656;7.216;2024-03-07T01:33:56;101799.88;;;18.49;47.20
82743;BME280;72483;50.656;7.216;2024-03-07T01:36:22;101801.81;;;18.48;46.82
82743;BME280;72483;50.656;7.216;2024-03-07T01:38:49;101791.50;;;18.49;46.77
82743;BME280;72483;50.656;7.216;2024-03-07T01:41:18;101784.25;;;18.48;46.95
82743;BME280;72483;50.656;7.216;2024-03-07T01:43:44;101782.28;;;18.48;47.00
82743;BME280;72483;50.656;7.216;2024-03-07T01:46:12;101787.03;;;18.48;46.69
82743;BME280;72483;50.656;7.216;2024-03-07T01:48:39;101779.75;;;18.47;46.84
82743;BME280;72483;50.656;7.216;2024-03-07T01:51:06;101784.25;;;18.48;46.70
82743;BME280;72483;50.656;7.216;2024-03-07T01:53:34;101782.53;;;18.47;47.12
82743;BME280;72483;50.656;7.216;2024-03-07T01:56:02;101773.34;;;18.46;46.80
82743;BME280;72483;50.656;7.216;2024-03-07T01:58:30;101772.50;;;18.46;46.76
82743;BME280;72483;50.656;7.216;2024-03-07T02:00:57;101768.59;;;18.47;47.14
82743;BME280;72483;50.656;7.216;2024-03-07T02:03:24;101771.38;;;18.47;46.62
82743;BME280;72483;50.656;7.216;2024-03-07T02:05:51;101774.44;;;18.45;46.86
82743;BME280;72483;50.656;7.216;2024-03-07T02:08:18;101773.59;;;18.45;46.84
82743;BME280;72483;50.656;7.216;2024-03-07T02:10:45;101771.91;;;18.44;46.58
82743;BME280;72483;50.656;7.216;2024-03-07T02:13:11;101770.25;;;18.43;46.75
82743;BME280;72483;50.656;7.216;2024-03-07T02:15:39;101769.66;;;18.41;46.95
82743;BME280;72483;50.656;7.216;2024-03-07T02:18:08;101756.84;;;18.40;46.48
82743;BME280;72483;50.656;7.216;2024-03-07T02:20:34;101764.06;;;18.41;46.45
82743;BME280;72483;50.656;7.216;2024-03-07T02:23:02;101767.16;;;18.39;46.59
82743;BME280;72483;50.656;7.216;2024-03-07T02:25:29;101763.78;;;18.37;46.41
82743;BME280;72483;50.656;7.216;2024-03-07T02:27:57;101759.03;;;18.38;46.61
82743;BME280;72483;50.656;7.216;2024-03-07T02:30:23;101763.78;;;18.37;46.43
82743;BME280;72483;50.656;7.216;2024-03-07T02:32:50;101762.66;;;18.38;46.40
82743;BME280;72483;50.656;7.216;2024-03-07T02:35:20;101755.44;;;18.37;46.46
82743;BME280;72483;50.656;7.216;2024-03-07T02:37:46;101757.38;;;18.37;46.64
82743;BME280;72483;50.656;7.216;2024-03-07T02:40:15;101760.41;;;18.35;46.66
82743;BME280;72483;50.656;7.216;2024-03-07T02:42:42;101748.41;;;18.35;46.65
82743;BME280;72483;50.656;7.216;2024-03-07T02:45:09;101747.56;;;18.34;46.29
82743;BME280;72483;50.656;7.216;2024-03-07T02:47:40;101751.47;;;18.33;46.15
82743;BME280;72483;50.656;7.216;2024-03-07T02:50:08;101750.63;;;18.33;46.36
82743;BME280;72483;50.656;7.216;2024-03-07T02:52:35;101759.00;;;18.33;46.43
82743;BME280;72483;50.656;7.216;2024-03-07T02:55:02;101745.31;;;18.31;46.44
82743;BME280;72483;50.656;7.216;2024-03-07T02:57:31;101756.47;;;18.31;46.39
82743;BME280;72483;50.656;7.216;2024-03-07T02:59:59;101748.38;;;18.30;46.60
82743;BME280;72483;50.656;7.216;2024-03-07T03:02:25;101747.28;;;18.31;46.41
82743;BME280;72483;50.656;7.216;2024-03-07T03:04:52;101746.44;;;18.30;46.56
82743;BME280;72483;50.656;7.216;2024-03-07T03:07:19;101744.72;;;18.29;46.39
82743;BME280;72483;50.656;7.216;2024-03-07T03:09:46;101744.72;;;18.29;46.54
82743;BME280;72483;50.656;7.216;2024-03-07T03:12:12;101745.59;;;18.30;46.42
82743;BME280;72483;50.656;7.216;2024-03-07T03:14:40;101742.78;;;18.30;46.02
82743;BME280;72483;50.656;7.216;2024-03-07T03:17:07;101735.53;;;18.29;46.43
82743;BME280;72483;50.656;7.216;2024-03-07T03:19:34;101733.56;;;18.29;46.03
82743;BME280;72483;50.656;7.216;2024-03-07T03:22:01;101731.88;;;18.28;46.17
82743;BME280;72483;50.656;7.216;2024-03-07T03:24:28;101730.22;;;18.27;46.39
82743;BME280;72483;50.656;7.216;2024-03-07T03:26:55;101721.56;;;18.29;46.34
82743;BME280;72483;50.656;7.216;2024-03-07T03:29:22;101717.13;;;18.28;46.04
82743;BME280;72483;50.656;7.216;2024-03-07T03:31:50;101724.66;;;18.27;46.20
82743;BME280;72483;50.656;7.216;2024-03-07T03:34:16;101718.22;;;18.27;46.00
82743;BME280;72483;50.656;7.216;2024-03-07T03:36:43;101718.22;;;18.27;46.05
82743;BME280;72483;50.656;7.216;2024-03-07T03:39:09;101717.38;;;18.26;46.48
82743;BME280;72483;50.656;7.216;2024-03-07T03:41:38;101717.38;;;18.26;45.84
82743;BME280;72483;50.656;7.216;2024-03-07T03:44:05;101714.88;;;18.25;46.27
82743;BME280;72483;50.656;7.216;2024-03-07T03:46:32;101722.09;;;18.26;46.38
82743;BME280;72483;50.656;7.216;2024-03-07T03:48:59;101715.69;;;18.25;46.31
82743;BME280;72483;50.656;7.216;2024-03-07T03:51:26;101717.66;;;18.25;46.14
82743;BME280;72483;50.656;7.216;2024-03-07T03:53:53;101716.53;;;18.26;46.12
82743;BME280;72483;50.656;7.216;2024-03-07T03:56:19;101717.66;;;18.25;46.34
82743;BME280;72483;50.656;7.216;2024-03-07T03:58:46;101714.88;;;18.25;46.23
82743;BME280;72483;50.656;7.216;2024-03-07T04:01:12;101719.59;;;18.24;46.07
82743;BME280;72483;50.656;7.216;2024-03-07T04:03:39;101713.19;;;18.24;45.80
82743;BME280;72483;50.656;7.216;2024-03-07T04:06:07;101718.75;;;18.24;45.88
82743;BME280;72483;50.656;7.216;2024-03-07T04:08:34;101717.91;;;18.23;46.02
82743;BME280;72483;50.656;7.216;2024-03-07T04:11:02;101723.47;;;18.23;46.36
82743;BME280;72483;50.656;7.216;2024-03-07T04:13:29;101710.63;;;18.22;45.84
82743;BME280;72483;50.656;7.216;2024-03-07T04:15:55;101714.28;;;18.23;46.07
82743;BME280;72483;50.656;7.216;2024-03-07T04:18:22;101710.63;;;18.22;46.28
82743;BME280;72483;50.656;7.216;2024-03-07T04:20:49;101713.44;;;18.22;46.32
82743;BME280;72483;50.656;7.216;2024-03-07T04:23:18;101715.38;;;18.22;45.98
82743;BME280;72483;50.656;7.216;2024-03-07T04:25:45;101715.38;;;18.22;46.29
82743;BME280;72483;50.656;7.216;2024-03-07T04:28:12;101712.56;;;18.22;45.97
82743;BME280;72483;50.656;7.216;2024-03-07T04:30:38;101715.38;;;18.22;45.84
82743;BME280;72483;50.656;7.216;2024-03-07T04:33:05;101713.97;;;18.19;45.96
82743;BME280;72483;50.656;7.216;2024-03-07T04:35:31;101709.22;;;18.20;45.78
82743;BME280;72483;50.656;7.216;2024-03-07T04:37:58;101703.66;;;18.20;45.77
82743;BME280;72483;50.656;7.216;2024-03-07T04:40:26;101708.13;;;18.21;46.09
82743;BME280;72483;50.656;7.216;2024-03-07T04:42:53;101698.06;;;18.20;45.61
82743;BME280;72483;50.656;7.216;2024-03-07T04:45:19;101706.44;;;18.20;45.90
82743;BME280;72483;50.656;7.216;2024-03-07T04:47:46;101707.28;;;18.20;46.09
82743;BME280;72483;50.656;7.216;2024-03-07T04:50:13;101700.84;;;18.20;45.99
82743;BME280;72483;50.656;7.216;2024-03-07T04:52:42;101703.66;;;18.20;45.80
82743;BME280;72483;50.656;7.216;2024-03-07T04:55:09;101701.97;;;18.19;45.76
82743;BME280;72483;50.656;7.216;2024-03-07T04:57:37;101698.34;;;18.18;45.69
82743;BME280;72483;50.656;7.216;2024-03-07T05:00:06;101708.66;;;18.18;46.04
82743;BME280;72483;50.656;7.216;2024-03-07T05:02:38;101703.09;;;18.18;46.06
82743;BME280;72483;50.656;7.216;2024-03-07T05:05:05;101714.25;;;18.18;46.07
82743;BME280;72483;50.656;7.216;2024-03-07T05:07:31;101715.91;;;18.19;45.62
82743;BME280;72483;50.656;7.216;2024-03-07T05:09:58;101711.16;;;18.19;46.09
82743;BME280;72483;50.656;7.216;2024-03-07T05:12:25;101703.09;;;18.18;45.80
82743;BME280;72483;50.656;7.216;2024-03-07T05:14:53;101711.44;;;18.18;45.98
82743;BME280;72483;50.656;7.216;2024-03-07T05:17:20;101718.97;;;18.17;45.84
82743;BME280;72483;50.656;7.216;2024-03-07T05:19:47;101718.97;;;18.17;45.43
82743;BME280;72483;50.656;7.216;2024-03-07T05:22:14;101710.84;;;18.16;45.80
82743;BME280;72483;50.656;7.216;2024-03-07T05:24:41;101706.97;;;18.17;45.98
82743;BME280;72483;50.656;7.216;2024-03-07T05:27:09;101711.97;;;18.15;45.61
82743;BME280;72483;50.656;7.216;2024-03-07T05:29:36;101710.03;;;18.15;45.91
82743;BME280;72483;50.656;7.216;2024-03-07T05:35:15;101710.28;;;18.13;45.84
82743;BME280;72483;50.656;7.216;2024-03-07T05:37:42;101712.22;;;18.13;45.57
82743;BME280;72483;50.656;7.216;2024-03-07T05:40:12;101714.16;;;18.12;45.83
82743;BME280;72483;50.656;7.216;2024-03-07T05:42:38;101721.72;;;18.12;45.72
82743;BME280;72483;50.656;7.216;2024-03-07T05:45:06;101709.72;;;18.11;46.00
82743;BME280;72483;50.656;7.216;2024-03-07T05:47:33;101716.97;;;18.12;45.56
82743;BME280;72483;50.656;7.216;2024-03-07T05:49:59;101710.56;;;18.12;45.95
82743;BME280;72483;50.656;7.216;2024-03-07T05:52:27;101712.50;;;18.11;45.87
82743;BME280;72483;50.656;7.216;2024-03-07T05:54:54;101705.25;;;18.10;45.47
82743;BME280;72483;50.656;7.216;2024-03-07T05:57:22;101711.38;;;18.12;45.42
82743;BME280;72483;50.656;7.216;2024-03-07T05:59:48;101705.81;;;18.12;45.64
82743;BME280;72483;50.656;7.216;2024-03-07T06:02:15;101710.03;;;18.15;45.29
82743;BME280;72483;50.656;7.216;2024-03-07T06:04:41;101709.75;;;18.17;45.61
82743;BME280;72483;50.656;7.216;2024-03-07T06:07:08;101708.97;;;18.21;45.86
82743;BME280;72483;50.656;7.216;2024-03-07T06:09:37;101705.66;;;18.24;45.75
82743;BME280;72483;50.656;7.216;2024-03-07T06:12:04;101714.34;;;18.28;45.68
82743;BME280;72483;50.656;7.216;2024-03-07T06:14:34;101708.78;;;18.33;45.45
82743;BME280;72483;50.656;7.216;2024-03-07T06:17:00;101703.53;;;18.36;45.51
82743;BME280;72483;50.656;7.216;2024-03-07T06:19:27;101706.63;;;18.40;45.36
82743;BME280;72483;50.656;7.216;2024-03-07T06:21:53;101702.47;;;18.42;45.35
82743;BME280;72483;50.656;7.216;2024-03-07T06:24:21;101702.22;;;18.49;44.73
82743;BME280;72483;50.656;7.216;2024-03-07T06:26:49;101708.16;;;18.52;45.36
82743;BME280;72483;50.656;7.216;2024-03-07T06:29:25;101703.69;;;18.56;45.08
82743;BME280;72483;50.656;7.216;2024-03-07T06:31:52;101697.59;;;18.59;44.84
82743;BME280;72483;50.656;7.216;2024-03-07T06:34:20;101706.25;;;18.63;44.87
82743;BME280;72483;50.656;7.216;2024-03-07T06:36:46;101706.56;;;18.67;45.22
82743;BME280;72483;50.656;7.216;2024-03-07T06:39:13;101708.81;;;18.70;45.34
82743;BME280;72483;50.656;7.216;2024-03-07T06:41:39;101716.41;;;18.74;44.94
82743;BME280;72483;50.656;7.216;2024-03-07T06:44:07;101708.88;;;18.75;45.66
82743;BME280;72483;50.656;7.216;2024-03-07T06:46:35;101717.81;;;18.77;45.72
82743;BME280;72483;50.656;7.216;2024-03-07T06:49:01;101711.44;;;18.81;45.50
82743;BME280;72483;50.656;7.216;2024-03-07T06:51:28;101703.63;;;18.83;45.60
82743;BME280;72483;50.656;7.216;2024-03-07T06:53:54;101707.81;;;18.86;45.54
82743;BME280;72483;50.656;7.216;2024-03-07T06:56:21;101695.56;;;18.87;45.87
82743;BME280;72483;50.656;7.216;2024-03-07T06:58:49;101707.56;;;18.87;45.96
82743;BME280;72483;50.656;7.216;2024-03-07T07:01:17;101697.25;;;18.88;45.86
82743;BME280;72483;50.656;7.216;2024-03-07T07:03:44;101698.06;;;18.88;45.46
82743;BME280;72483;50.656;7.216;2024-03-07T07:06:12;101704.22;;;18.90;45.79
82743;BME280;72483;50.656;7.216;2024-03-07T07:08:39;101696.09;;;18.89;45.77
82743;BME280;72483;50.656;7.216;2024-03-07T07:11:05;101698.91;;;18.89;45.73
82743;BME280;72483;50.656;7.216;2024-03-07T07:13:32;101698.91;;;18.89;45.90
82743;BME280;72483;50.656;7.216;2024-03-07T07:15:58;101695.00;;;18.90;45.76
82743;BME280;72483;50.656;7.216;2024-03-07T07:18:26;101700.59;;;18.90;46.00
82743;BME280;72483;50.656;7.216;2024-03-07T07:20:53;101693.31;;;18.89;45.67
82743;BME280;72483;50.656;7.216;2024-03-07T07:23:20;101692.22;;;18.90;45.99
82743;BME280;72483;50.656;7.216;2024-03-07T07:25:48;101692.47;;;18.88;45.83
82743;BME280;72483;50.656;7.216;2024-03-07T07:28:15;101687.47;;;18.90;45.64
82743;BME280;72483;50.656;7.216;2024-03-07T07:30:42;101684.94;;;18.89;45.50
82743;BME280;72483;50.656;7.216;2024-03-07T07:33:08;101687.75;;;18.89;45.76
82743;BME280;72483;50.656;7.216;2024-03-07T07:35:36;101695.88;;;18.95;46.09
82743;BME280;72483;50.656;7.216;2024-03-07T07:38:03;101681.38;;;18.98;45.18
82743;BME280;72483;50.656;7.216;2024-03-07T07:40:32;101690.06;;;19.02;45.90
82743;BME280;72483;50.656;7.216;2024-03-07T07:42:58;101683.91;;;19.00;45.70
82743;BME280;72483;50.656;7.216;2024-03-07T07:45:26;101679.16;;;19.00;45.63
82743;BME280;72483;50.656;7.216;2024-03-07T07:47:53;101686.09;;;18.98;46.41
82743;BME280;72483;50.656;7.216;2024-03-07T07:50:21;101678.03;;;18.96;46.45
82743;BME280;72483;50.656;7.216;2024-03-07T07:52:50;101689.44;;;18.95;46.48
82743;BME280;72483;50.656;7.216;2024-03-07T07:55:19;101688.59;;;18.94;47.08
82743;BME280;72483;50.656;7.216;2024-03-07T07:57:47;101676.63;;;18.94;46.86
82743;BME280;72483;50.656;7.216;2024-03-07T08:00:15;101672.97;;;18.93;46.89
82743;BME280;72483;50.656;7.216;2024-03-07T08:02:48;101665.72;;;18.92;46.73
82743;BME280;72483;50.656;7.216;2024-03-07T08:05:15;101671.84;;;18.94;46.85
82743;BME280;72483;50.656;7.216;2024-03-07T08:07:43;101669.91;;;18.95;46.30
82743;BME280;72483;50.656;7.216;2024-03-07T08:10:11;101671.84;;;18.94;46.52
82743;BME280;72483;50.656;7.216;2024-03-07T08:12:37;101671.28;;;18.92;46.94
82743;BME280;72483;50.656;7.216;2024-03-07T08:15:06;101671.59;;;18.96;46.08
82743;BME280;72483;50.656;7.216;2024-03-07T08:17:33;101663.78;;;18.98;46.51
82743;BME280;72483;50.656;7.216;2024-03-07T08:20:00;101667.69;;;18.97;46.10
82743;BME280;72483;50.656;7.216;2024-03-07T08:22:26;101668.25;;;18.94;46.50
82743;BME280;72483;50.656;7.216;2024-03-07T08:24:53;101678.56;;;18.93;46.61
82743;BME280;72483;50.656;7.216;2024-03-07T08:27:20;101669.34;;;18.93;46.58
82743;BME280;72483;50.656;7.216;2024-03-07T08:29:47;101671.28;;;18.92;46.56
82743;BME280;72483;50.656;7.216;2024-03-07T08:32:14;101662.91;;;18.92;46.28
82743;BME280;72483;50.656;7.216;2024-03-07T08:34:40;101674.09;;;18.92;46.18
82743;BME280;72483;50.656;7.216;2024-03-07T08:37:07;101668.50;;;18.92;46.04
82743;BME280;72483;50.656;7.216;2024-03-07T08:39:33;101669.59;;;18.91;46.20
82743;BME280;72483;50.656;7.216;2024-03-07T08:42:00;101663.75;;;18.93;46.66
82743;BME280;72483;50.656;7.216;2024-03-07T08:44:27;101660.97;;;18.93;46.42
82743;BME280;72483;50.656;7.216;2024-03-07T08:46:55;101660.97;;;18.93;46.39
82743;BME280;72483;50.656;7.216;2024-03-07T08:49:21;101662.38;;;18.95;45.68
82743;BME280;72483;50.656;7.216;2024-03-07T08:51:48;101662.38;;;18.95;45.82
82743;BME280;72483;50.656;7.216;2024-03-07T08:54:14;101668.50;;;18.97;46.04
82743;BME280;72483;50.656;7.216;2024-03-07T08:56:40;101673.84;;;18.99;45.96
82743;BME280;72483;50.656;7.216;2024-03-07T08:59:07;101670.19;;;18.98;45.92
82743;BME280;72483;50.656;7.216;2024-03-07T09:01:42;101670.78;;;19.00;45.37
82743;BME280;72483;50.656;7.216;2024-03-07T09:04:09;101665.22;;;19.00;45.45
82743;BME280;72483;50.656;7.216;2024-03-07T09:06:37;101666.88;;;19.01;45.58
82743;BME280;72483;50.656;7.216;2024-03-07T09:09:03;101662.97;;;19.02;45.31
82743;BME280;72483;50.656;7.216;2024-03-07T09:11:31;101662.69;;;19.04;45.47
82743;BME280;72483;50.656;7.216;2024-03-07T09:13:58;101664.06;;;19.01;45.40
82743;BME280;72483;50.656;7.216;2024-03-07T09:16:24;101655.97;;;19.00;45.55
82743;BME280;72483;50.656;7.216;2024-03-07T09:18:52;101662.41;;;19.00;45.63
82743;BME280;72483;50.656;7.216;2024-03-07T09:21:18;101667.41;;;18.98;45.06
82743;BME280;72483;50.656;7.216;2024-03-07T09:23:45;101659.03;;;18.98;45.29
82743;BME280;72483;50.656;7.216;2024-03-07T09:26:12;101656.84;;;19.00;45.51
82743;BME280;72483;50.656;7.216;2024-03-07T09:28:38;101661.56;;;19.00;45.28
82743;BME280;72483;50.656;7.216;2024-03-07T09:31:05;101662.13;;;19.02;45.21
82743;BME280;72483;50.656;7.216;2024-03-07T09:33:31;101652.06;;;19.01;45.01
82743;BME280;72483;50.656;7.216;2024-03-07T09:35:59;101658.78;;;19.00;45.58
82743;BME280;72483;50.656;7.216;2024-03-07T09:38:25;101654.28;;;18.99;45.45
82743;BME280;72483;50.656;7.216;2024-03-07T09:40:52;101649.81;;;18.98;45.02
82743;BME280;72483;50.656;7.216;2024-03-07T09:43:21;101653.19;;;19.00;45.02
82743;BME280;72483;50.656;7.216;2024-03-07T09:45:49;101649.56;;;18.99;45.26
82743;BME280;72483;50.656;7.216;2024-03-07T09:48:15;101645.91;;;18.99;45.03
82743;BME280;72483;50.656;7.216;2024-03-07T09:50:44;101651.25;;;19.00;45.05
82743;BME280;72483;50.656;7.216;2024-03-07T09:53:15;101653.19;;;19.00;44.95
82743;BME280;72483;50.656;7.216;2024-03-07T09:55:41;101646.47;;;19.01;44.91
82743;BME280;72483;50.656;7.216;2024-03-07T09:58:09;101638.09;;;19.01;45.03
82743;BME280;72483;50.656;7.216;2024-03-07T10:00:39;101645.66;;;19.00;44.74
82743;BME280;72483;50.656;7.216;2024-03-07T10:03:08;101642.03;;;19.00;44.76
82743;BME280;72483;50.656;7.216;2024-03-07T10:05:35;101638.66;;;18.98;44.60
82743;BME280;72483;50.656;7.216;2024-03-07T10:08:03;101641.19;;;18.99;44.77
82743;BME280;72483;50.656;7.216;2024-03-07T10:10:31;101635.00;;;18.97;45.17
82743;BME280;72483;50.656;7.216;2024-03-07T10:12:58;101614.66;;;18.97;44.96
82743;BME280;72483;50.656;7.216;2024-03-07T10:15:28;101618.53;;;18.96;44.94
82743;BME280;72483;50.656;7.216;2024-03-07T10:17:54;101610.16;;;18.96;44.91
82743;BME280;72483;50.656;7.216;2024-03-07T10:20:21;101608.47;;;18.95;44.86
82743;BME280;72483;50.656;7.216;2024-03-07T10:22:47;101610.16;;;18.96;44.61
82743;BME280;72483;50.656;7.216;2024-03-07T10:25:17;101605.44;;;18.96;44.60
82743;BME280;72483;50.656;7.216;2024-03-07T10:27:45;101607.69;;;18.99;45.02
82743;BME280;72483;50.656;7.216;2024-03-07T10:30:14;101606.00;;;18.98;44.65
82743;BME280;72483;50.656;7.216;2024-03-07T10:32:46;101593.72;;;18.99;44.75
82743;BME280;72483;50.656;7.216;2024-03-07T10:35:12;101602.38;;;19.03;44.96
82743;BME280;72483;50.656;7.216;2024-03-07T10:37:39;101594.56;;;19.05;44.34
82743;BME280;72483;50.656;7.216;2024-03-07T10:40:11;101592.88;;;19.04;44.60
82743;BME280;72483;50.656;7.216;2024-03-07T10:42:46;101589.28;;;19.03;44.79
82743;BME280;72483;50.656;7.216;2024-03-07T10:45:17;101599.88;;;19.06;44.73
82743;BME280;72483;50.656;7.216;2024-03-07T10:47:50;101594.56;;;19.05;44.18
82743;BME280;72483;50.656;7.216;2024-03-07T10:50:22;101581.44;;;19.05;44.89
82743;BME280;72483;50.656;7.216;2024-03-07T10:52:56;101583.41;;;19.10;44.13
82743;BME280;72483;50.656;7.216;2024-03-07T10:55:32;101573.66;;;19.12;44.29
82743;BME280;72483;50.656;7.216;2024-03-07T10:58:09;101578.66;;;19.10;44.49
82743;BME280;72483;50.656;7.216;2024-03-07T11:00:41;101576.72;;;19.11;44.32
82743;BME280;72483;50.656;7.216;2024-03-07T11:03:11;101573.06;;;19.10;43.94
82743;BME280;72483;50.656;7.216;2024-03-07T11:05:39;101568.88;;;19.08;44.04
82743;BME280;72483;50.656;7.216;2024-03-07T11:08:09;101574.50;;;19.13;44.00
82743;BME280;72483;50.656;7.216;2024-03-07T11:10:39;101567.22;;;19.12;43.95
82743;BME280;72483;50.656;7.216;2024-03-07T11:13:08;101565.84;;;19.09;44.52
82743;BME280;72483;50.656;7.216;2024-03-07T11:15:37;101570.03;;;19.12;44.22
82743;BME280;72483;50.656;7.216;2024-03-07T11:18:05;101570.56;;;19.14;44.07
82743;BME280;72483;50.656;7.216;2024-03-07T11:20:35;101563.88;;;19.15;43.95
82743;BME280;72483;50.656;7.216;2024-03-07T11:23:24;101566.38;;;19.11;43.88
82743;BME280;72483;50.656;7.216;2024-03-07T11:25:54;101555.22;;;19.11;43.72
82743;BME280;72483;50.656;7.216;2024-03-07T11:28:28;101550.19;;;19.13;43.79
82743;BME280;72483;50.656;7.216;2024-03-07T11:31:07;101558.00;;;19.11;43.86
82743;BME280;72483;50.656;7.216;2024-03-07T11:33:34;101562.19;;;19.14;43.94
82743;BME280;72483;50.656;7.216;2024-03-07T11:36:06;101547.38;;;19.13;43.91
82743;BME280;72483;50.656;7.216;2024-03-07T11:38:33;101546.84;;;19.11;44.07
82743;BME280;72483;50.656;7.216;2024-03-07T11:41:00;101530.38;;;19.15;43.94
82743;BME280;72483;50.656;7.216;2024-03-07T11:43:29;101544.34;;;19.15;43.93
82743;BME280;72483;50.656;7.216;2024-03-07T11:45:56;101541.53;;;19.15;44.17
82743;BME280;72483;50.656;7.216;2024-03-07T11:48:23;101530.38;;;19.15;43.89
82743;BME280;72483;50.656;7.216;2024-03-07T11:50:49;101526.75;;;19.14;43.85
82743;BME280;72483;50.656;7.216;2024-03-07T11:53:16;101530.38;;;19.15;43.76
82743;BME280;72483;50.656;7.216;2024-03-07T11:55:43;101530.63;;;19.13;44.07
82743;BME280;72483;50.656;7.216;2024-03-07T11:58:12;101516.97;;;19.17;43.77
82743;BME280;72483;50.656;7.216;2024-03-07T12:00:40;101507.19;;;19.19;43.84
82743;BME280;72483;50.656;7.216;2024-03-07T12:03:10;101517.25;;;19.21;43.64
82743;BME280;72483;50.656;7.216;2024-03-07T12:05:39;101512.50;;;19.21;43.94
82743;BME280;72483;50.656;7.216;2024-03-07T12:08:06;101509.44;;;19.23;43.51
82743;BME280;72483;50.656;7.216;2024-03-07T12:10:35;101504.41;;;19.19;43.71
82743;BME280;72483;50.656;7.216;2024-03-07T12:13:04;101505.53;;;19.18;43.68
82743;BME280;72483;50.656;7.216;2024-03-07T12:15:31;101499.94;;;19.18;43.60
82743;BME280;72483;50.656;7.216;2024-03-07T12:18:00;101495.75;;;19.16;44.22
82743;BME280;72483;50.656;7.216;2024-03-07T12:20:28;101488.19;;;19.16;43.82
82743;BME280;72483;50.656;7.216;2024-03-07T12:22:59;101492.13;;;19.21;43.56
82743;BME280;72483;50.656;7.216;2024-03-07T12:25:28;101487.06;;;19.23;43.97
82743;BME280;72483;50.656;7.216;2024-03-07T12:28:05;101483.19;;;19.24;43.96
82743;BME280;72483;50.656;7.216;2024-03-07T12:30:38;101482.06;;;19.25;43.66
82743;BME280;72483;50.656;7.216;2024-03-07T12:33:16;101471.19;;;19.28;43.98
82743;BME280;72483;50.656;7.216;2024-03-07T12:35:44;101465.03;;;19.31;43.66
82743;BME280;72483;50.656;7.216;2024-03-07T12:38:12;101473.13;;;19.33;43.60
82743;BME280;72483;50.656;7.216;2024-03-07T12:40:41;101463.91;;;19.32;43.78
82743;BME280;72483;50.656;7.216;2024-03-07T12:43:17;101459.75;;;19.35;43.93
82743;BME280;72483;50.656;7.216;2024-03-07T12:45:47;101458.88;;;19.39;43.55
82743;BME280;72483;50.656;7.216;2024-03-07T12:48:15;101450.50;;;19.39;43.38
82743;BME280;72483;50.656;7.216;2024-03-07T12:50:45;101453.28;;;19.39;43.56
82743;BME280;72483;50.656;7.216;2024-03-07T12:53:12;101446.34;;;19.42;43.52
82743;BME280;72483;50.656;7.216;2024-03-07T12:55:39;101449.13;;;19.42;43.56